Terminal Aerodrome Forecast
Issued by NWS Huntsville, AL

Home | Current Version | Previous Version | Text Only | Print | Product List | Glossary On
Versions: 1 2 3 4 5 6 7 8 9 10 11 12 13 14 15 16 17 18 19 20 21 22 23 24 25 26
000
FTUS44 KHUN 290521
TAFHSV
TAF
KHSV 290521Z 2906/3006 VRB04KT P6SM SCT250
     FM291500 17012KT P6SM BKN070
     FM292100 26010KT P6SM -RA BKN020
     FM300100 31008KT P6SM VCSH BKN015=

USA.gov is the U.S. government's official web portal to all federal, state and local government web resources and services.